Terminal Aerodrome Forecast
Issued by NWS

Home | Current Version | Previous Version | Text Only | Print | Product List | Glossary On
Versions: 1 2 3 4 5 6 7 8 9 10 11 12
000
FTUS45 KRIW 241700
TAFBPI
TAF
KBPI 241728Z 2418/2518 34020G28KT P6SM SCT060
     FM250000 34009KT P6SM FEW060
     FM251000 VRB05KT P6SM SCT035 BKN060
     FM251200 33009KT 5SM -SN OVC035=

USA.gov is the U.S. government's official web portal to all federal, state and local government web resources and services.